Time;durP1;ratioP1;P1;durP2;ratioP2;P2;SDS_P1;SDS_P2;PMS_P1;PMS_P2;Temp;Humidity;BMP_temperature;BMP_pressure;BME280_temperature;BME280_humidity;BME280_pressure;Samples;Min_cycle;Max_cycle;Signal;HPM_P1;HPM_P2
2023/06/15 00:01:48;;;;;;;4.47;3.08;;;17.20;61.20;;;;;;5068413;28;20040;-71
2023/06/15 00:04:16;;;;;;;5.40;3.22;;;17.20;61.30;;;;;;5069013;28;20041;-70
2023/06/15 00:06:44;;;;;;;4.75;3.53;;;17.10;61.50;;;;;;5068699;28;20156;-71
2023/06/15 00:09:12;;;;;;;4.75;3.13;;;17.10;61.70;;;;;;5068899;28;20049;-70
2023/06/15 00:11:39;;;;;;;4.45;2.75;;;17.00;61.80;;;;;;5068202;28;20123;-77
2023/06/15 00:14:06;;;;;;;4.60;3.10;;;17.00;61.80;;;;;;5070447;28;20045;-79
2023/06/15 00:16:33;;;;;;;5.93;3.38;;;17.00;62.00;;;;;;5067401;28;20063;-71
2023/06/15 00:19:01;;;;;;;4.22;3.00;;;17.00;62.00;;;;;;5069419;28;20063;-70
2023/06/15 00:21:30;;;;;;;5.43;2.90;;;16.90;62.10;;;;;;5069558;28;20104;-79
2023/06/15 00:23:58;;;;;;;4.53;2.90;;;17.00;61.90;;;;;;5070961;28;20068;-80
2023/06/15 00:26:27;;;;;;;3.92;2.65;;;16.90;62.00;;;;;;5070520;28;20053;-72
2023/06/15 00:28:54;;;;;;;4.55;2.97;;;16.80;62.30;;;;;;5067514;28;20057;-71
2023/06/15 00:31:22;;;;;;;4.50;2.65;;;16.80;62.30;;;;;;5069792;28;20123;-72
2023/06/15 00:33:49;;;;;;;4.68;3.20;;;16.70;62.70;;;;;;5069471;28;20052;-72
2023/06/15 00:36:19;;;;;;;5.68;3.00;;;16.80;62.50;;;;;;5069442;28;20143;-72
2023/06/15 00:38:46;;;;;;;4.85;2.97;;;16.70;62.50;;;;;;5063404;28;20079;-71
2023/06/15 00:41:14;;;;;;;4.22;2.92;;;16.70;62.70;;;;;;5068030;28;21398;-70
2023/06/15 00:43:41;;;;;;;6.38;3.15;;;16.70;62.90;;;;;;5069674;28;20396;-69
2023/06/15 00:46:08;;;;;;;6.35;3.17;;;16.60;62.90;;;;;;5068366;28;20071;-68
2023/06/15 00:48:36;;;;;;;5.03;3.20;;;16.60;62.90;;;;;;5067189;28;20078;-69
2023/06/15 00:51:04;;;;;;;4.75;3.17;;;16.60;63.00;;;;;;5067147;28;20132;-69
2023/06/15 00:53:32;;;;;;;5.85;3.05;;;16.60;63.10;;;;;;5069281;28;20056;-69
2023/06/15 00:55:59;;;;;;;6.20;3.60;;;16.50;63.20;;;;;;5069303;28;20389;-69
2023/06/15 00:58:28;;;;;;;5.43;2.80;;;16.60;63.00;;;;;;5070025;28;20040;-68
2023/06/15 01:00:55;;;;;;;5.43;3.03;;;16.50;63.00;;;;;;5069193;28;20083;-70
2023/06/15 01:03:23;;;;;;;4.93;3.22;;;16.40;63.30;;;;;;5067388;28;20407;-70
2023/06/15 01:05:52;;;;;;;5.20;3.08;;;16.40;63.60;;;;;;5069103;28;20051;-80
2023/06/15 01:08:20;;;;;;;5.13;3.08;;;16.30;63.60;;;;;;5064048;28;20045;-79
2023/06/15 01:10:48;;;;;;;5.88;2.78;;;16.30;63.80;;;;;;5068369;28;20052;-68
2023/06/15 01:13:19;;;;;;;5.18;3.10;;;16.30;63.90;;;;;;5064118;28;20056;-68
2023/06/15 01:15:50;;;;;;;4.22;2.97;;;16.20;64.10;;;;;;5076259;28;20055;-72
2023/06/15 01:18:20;;;;;;;4.75;3.00;;;16.30;63.70;;;;;;5068023;28;20064;-72
2023/06/15 01:20:48;;;;;;;5.97;3.47;;;16.40;63.70;;;;;;5050899;28;20110;-74
2023/06/15 01:23:22;;;;;;;4.25;2.95;;;16.40;63.40;;;;;;5081712;28;20052;-72
2023/06/15 01:26:09;;;;;;;5.68;3.20;;;16.30;63.70;;;;;;5073790;28;20052;-80
2023/06/15 01:28:40;;;;;;;5.65;2.75;;;16.30;63.70;;;;;;5080613;28;20055;-78
2023/06/15 01:31:08;;;;;;;4.75;2.80;;;16.30;63.70;;;;;;5079775;28;20076;-63
2023/06/15 01:33:44;;;;;;;4.35;2.67;;;16.30;63.80;;;;;;5086321;28;20507;-63
2023/06/15 01:36:12;;;;;;;5.00;2.88;;;16.10;64.20;;;;;;5087701;28;20055;-68
2023/06/15 01:38:40;;;;;;;4.28;2.80;;;16.00;64.50;;;;;;5092321;28;20117;-69
2023/06/15 01:41:09;;;;;;;6.15;3.00;;;16.10;64.60;;;;;;5055776;28;20079;-62
2023/06/15 01:43:38;;;;;;;4.50;3.00;;;16.00;64.70;;;;;;5068917;28;20068;-62
2023/06/15 01:46:07;;;;;;;5.32;3.03;;;16.00;64.80;;;;;;5068978;28;20040;-68
2023/06/15 01:48:34;;;;;;;5.50;2.88;;;16.00;64.90;;;;;;5063347;28;20060;-68
2023/06/15 01:51:02;;;;;;;6.15;3.30;;;16.10;64.70;;;;;;5065851;28;20041;-79
2023/06/15 01:53:30;;;;;;;5.13;2.97;;;16.00;64.70;;;;;;5068927;28;20048;-81
2023/06/15 01:55:59;;;;;;;4.13;2.58;;;16.00;64.70;;;;;;5068452;28;20601;-74
2023/06/15 01:58:27;;;;;;;4.60;3.45;;;16.10;64.30;;;;;;5066326;28;20052;-73
2023/06/15 02:00:54;;;;;;;4.75;2.85;;;16.00;64.50;;;;;;5074473;28;20118;-72
2023/06/15 02:03:21;;;;;;;5.55;3.17;;;16.00;64.50;;;;;;5066236;28;20049;-72
2023/06/15 02:05:48;;;;;;;4.65;3.03;;;16.00;64.70;;;;;;5070277;28;20048;-68
2023/06/15 02:08:15;;;;;;;5.45;3.05;;;15.90;64.90;;;;;;5055223;28;20052;-69
2023/06/15 02:10:42;;;;;;;4.60;2.97;;;15.80;65.20;;;;;;5081401;28;20051;-71
2023/06/15 02:13:12;;;;;;;4.95;2.95;;;15.80;65.20;;;;;;5066833;28;20562;-70
2023/06/15 02:15:40;;;;;;;5.22;2.97;;;15.90;65.00;;;;;;5066305;28;20048;-79
2023/06/15 02:18:12;;;;;;;6.00;3.28;;;15.90;65.00;;;;;;5068905;28;20055;-81
2023/06/15 02:20:41;;;;;;;5.80;3.35;;;15.80;65.20;;;;;;5066822;28;20483;-69
2023/06/15 02:23:08;;;;;;;4.97;3.30;;;15.70;65.60;;;;;;5063795;28;20052;-67
2023/06/15 02:25:35;;;;;;;4.72;2.80;;;15.70;65.60;;;;;;5063625;28;20053;-68
2023/06/15 02:28:03;;;;;;;4.35;2.95;;;15.70;65.60;;;;;;5068119;28;20410;-68
2023/06/15 02:30:30;;;;;;;4.50;2.85;;;15.80;65.60;;;;;;5065201;28;20055;-67
2023/06/15 02:33:00;;;;;;;6.20;3.25;;;15.60;65.90;;;;;;5066389;28;20475;-68
2023/06/15 02:35:28;;;;;;;5.53;3.00;;;15.60;66.20;;;;;;5082838;28;20131;-62
2023/06/15 02:37:55;;;;;;;3.67;2.45;;;15.60;66.20;;;;;;5068583;28;20086;-62
2023/06/15 02:40:22;;;;;;;4.00;2.75;;;15.60;66.30;;;;;;5060288;28;20095;-67
2023/06/15 02:42:49;;;;;;;5.97;3.42;;;15.50;66.30;;;;;;5064522;28;20048;-69
2023/06/15 02:45:17;;;;;;;5.40;3.53;;;15.50;66.40;;;;;;5067091;28;20040;-68
2023/06/15 02:47:44;;;;;;;4.93;3.55;;;15.40;66.50;;;;;;5057048;28;20598;-68
2023/06/15 02:50:14;;;;;;;4.75;3.00;;;15.30;66.90;;;;;;5066214;28;20411;-67
2023/06/15 02:52:47;;;;;;;5.55;3.08;;;15.30;66.90;;;;;;5066477;28;20487;-68
2023/06/15 02:55:15;;;;;;;4.63;3.25;;;15.30;66.90;;;;;;5066761;28;20067;-69
2023/06/15 02:57:43;;;;;;;5.90;3.10;;;15.30;66.70;;;;;;5060408;28;20254;-68
2023/06/15 03:00:23;;;;;;;4.88;3.10;;;15.40;66.50;;;;;;5066024;28;20083;-75
2023/06/15 03:02:58;;;;;;;4.55;3.10;;;15.30;66.80;;;;;;5066414;28;20045;-77
2023/06/15 03:05:30;;;;;;;4.13;2.78;;;15.20;67.20;;;;;;5066113;28;20044;-69
2023/06/15 03:08:00;;;;;;;4.90;3.03;;;15.20;67.40;;;;;;5071874;28;20466;-68
2023/06/15 03:10:45;;;;;;;6.63;3.60;;;15.20;67.30;;;;;;5067869;28;20059;-69
2023/06/15 03:13:13;;;;;;;4.95;3.00;;;15.20;67.10;;;;;;5065643;28;20041;-69
2023/06/15 03:15:40;;;;;;;6.10;3.40;;;15.20;67.20;;;;;;5066333;28;20044;-69
2023/06/15 03:18:07;;;;;;;6.25;3.45;;;15.10;67.50;;;;;;5065748;28;20041;-69
2023/06/15 03:20:37;;;;;;;4.93;3.22;;;15.00;67.70;;;;;;5065490;28;20128;-68
2023/06/15 03:23:04;;;;;;;4.65;3.17;;;15.10;67.30;;;;;;5064138;28;20094;-68
2023/06/15 03:25:31;;;;;;;5.28;2.80;;;15.10;67.60;;;;;;5064533;28;20099;-71
2023/06/15 03:27:59;;;;;;;5.68;2.80;;;15.10;67.60;;;;;;5064326;28;20048;-71
2023/06/15 03:30:28;;;;;;;6.30;3.00;;;15.10;67.60;;;;;;5065053;28;20052;-70
2023/06/15 03:32:55;;;;;;;5.95;3.53;;;15.10;67.90;;;;;;5063874;28;20052;-71
2023/06/15 03:35:23;;;;;;;4.95;3.13;;;15.10;67.90;;;;;;5070281;28;20048;-70
2023/06/15 03:37:52;;;;;;;5.68;3.13;;;15.00;68.10;;;;;;5068567;28;20177;-68
2023/06/15 03:40:18;;;;;;;6.97;3.00;;;15.00;68.10;;;;;;5070568;28;20045;-69
2023/06/15 03:42:45;;;;;;;5.75;3.38;;;15.00;68.30;;;;;;5068903;28;20055;-68
2023/06/15 03:45:13;;;;;;;4.43;3.13;;;14.90;68.50;;;;;;5071399;28;20048;-70
2023/06/15 03:47:40;;;;;;;4.70;3.10;;;14.90;68.40;;;;;;5069073;28;20045;-68
2023/06/15 03:50:08;;;;;;;4.45;2.65;;;14.70;68.50;;;;;;5067882;28;20106;-69
2023/06/15 03:52:36;;;;;;;5.75;3.47;;;14.80;68.50;;;;;;5070129;28;20053;-71
2023/06/15 03:55:06;;;;;;;4.35;2.90;;;14.80;68.60;;;;;;5060197;28;20048;-72
2023/06/15 03:57:33;;;;;;;4.95;3.15;;;14.70;68.80;;;;;;5078964;28;20523;-76
2023/06/15 04:00:00;;;;;;;5.38;3.00;;;14.70;69.00;;;;;;5068016;28;20044;-77
2023/06/15 04:02:27;;;;;;;5.47;3.00;;;14.70;69.00;;;;;;5070120;28;20059;-77
2023/06/15 04:04:56;;;;;;;5.00;3.08;;;14.70;69.10;;;;;;5069965;28;20111;-75
2023/06/15 04:07:25;;;;;;;7.43;3.25;;;14.70;69.30;;;;;;5068388;28;20467;-68
2023/06/15 04:09:52;;;;;;;5.22;3.00;;;14.70;69.30;;;;;;5072455;28;20475;-68
2023/06/15 04:12:20;;;;;;;4.45;2.80;;;14.70;69.30;;;;;;5065534;28;20041;-69
2023/06/15 04:14:47;;;;;;;5.53;3.28;;;14.70;69.30;;;;;;5062903;28;20060;-69
2023/06/15 04:17:15;;;;;;;5.28;3.40;;;14.70;69.40;;;;;;5068900;28;20426;-67
2023/06/15 04:19:42;;;;;;;4.72;3.05;;;14.80;69.40;;;;;;5069457;28;20048;-66
2023/06/15 04:22:09;;;;;;;5.40;3.10;;;14.70;69.50;;;;;;5067797;28;20567;-76
2023/06/15 04:24:37;;;;;;;6.45;3.15;;;14.70;69.50;;;;;;5068173;28;20047;-76
2023/06/15 04:27:06;;;;;;;4.15;2.88;;;14.80;69.60;;;;;;5069234;28;20048;-63
2023/06/15 04:29:35;;;;;;;5.07;3.20;;;14.80;69.80;;;;;;5068251;28;20048;-63
2023/06/15 04:32:03;;;;;;;6.00;2.95;;;14.80;69.80;;;;;;5068839;28;20098;-67
2023/06/15 04:34:33;;;;;;;6.85;3.15;;;14.80;69.80;;;;;;5064363;28;20052;-66
2023/06/15 04:37:00;;;;;;;4.65;3.20;;;14.80;69.80;;;;;;5059931;28;20048;-69
2023/06/15 04:39:28;;;;;;;6.03;3.40;;;14.90;69.80;;;;;;5051569;28;20076;-69
2023/06/15 04:41:59;;;;;;;5.15;3.03;;;14.90;69.90;;;;;;5059606;28;20044;-61
2023/06/15 04:44:27;;;;;;;5.03;3.20;;;14.90;70.00;;;;;;5064537;28;20106;-61
2023/06/15 04:46:55;;;;;;;4.97;3.10;;;14.90;69.90;;;;;;5065640;28;20071;-68
2023/06/15 04:49:23;;;;;;;4.90;3.03;;;14.90;69.90;;;;;;5068094;28;20133;-70
2023/06/15 04:51:50;;;;;;;6.65;3.78;;;14.90;70.00;;;;;;5069399;28;20110;-71
2023/06/15 04:54:17;;;;;;;6.00;3.70;;;15.00;70.10;;;;;;5057865;28;20044;-70
2023/06/15 04:56:44;;;;;;;5.15;3.58;;;15.00;69.90;;;;;;5066242;28;20495;-67
2023/06/15 04:59:12;;;;;;;5.65;3.30;;;15.20;69.40;;;;;;5068353;28;20040;-67
2023/06/15 05:01:39;;;;;;;5.47;3.67;;;15.20;69.40;;;;;;5068454;28;20055;-78
2023/06/15 05:04:13;;;;;;;10.95;3.83;;;15.20;69.30;;;;;;5067279;28;20055;-77
2023/06/15 05:06:39;;;;;;;5.32;3.67;;;15.20;69.40;;;;;;5066573;28;20129;-72
2023/06/15 05:09:07;;;;;;;7.05;4.03;;;15.20;69.40;;;;;;5067503;28;20060;-71
2023/06/15 05:11:35;;;;;;;5.40;3.38;;;15.30;69.30;;;;;;5067330;28;20059;-71
2023/06/15 05:14:03;;;;;;;5.45;3.83;;;15.30;69.30;;;;;;5065381;28;20072;-72
2023/06/15 05:16:31;;;;;;;6.88;3.60;;;15.40;69.30;;;;;;5075488;28;20136;-70
2023/06/15 05:18:58;;;;;;;5.32;3.45;;;15.40;69.10;;;;;;5068065;28;20044;-70
2023/06/15 05:21:26;;;;;;;4.88;3.58;;;15.40;69.30;;;;;;5067907;28;20045;-70
2023/06/15 05:23:54;;;;;;;6.25;3.80;;;15.40;69.50;;;;;;5056997;28;20084;-71
2023/06/15 05:26:21;;;;;;;6.50;3.70;;;15.50;69.40;;;;;;5067135;28;20459;-69
2023/06/15 05:28:50;;;;;;;5.10;3.53;;;15.50;69.10;;;;;;5067901;28;20403;-68
2023/06/15 05:31:18;;;;;;;5.15;3.60;;;15.60;68.80;;;;;;5067243;28;20042;-71
2023/06/15 05:33:45;;;;;;;7.93;3.55;;;15.60;69.20;;;;;;5082914;28;20040;-69
2023/06/15 05:36:12;;;;;;;5.93;3.95;;;15.60;69.20;;;;;;5067751;28;20056;-71
2023/06/15 05:38:40;;;;;;;5.90;3.80;;;15.60;69.50;;;;;;5067141;28;20128;-72
2023/06/15 05:41:07;;;;;;;5.63;4.07;;;15.70;69.00;;;;;;5066999;28;20056;-79
2023/06/15 05:43:35;;;;;;;6.47;4.05;;;15.80;69.00;;;;;;5066899;28;20194;-78
2023/06/15 05:46:03;;;;;;;6.68;3.88;;;15.80;68.70;;;;;;5065849;28;20090;-62
2023/06/15 05:48:30;;;;;;;5.55;3.97;;;15.80;68.50;;;;;;5068166;28;20434;-64
2023/06/15 05:50:57;;;;;;;7.25;3.70;;;15.80;68.80;;;;;;5074279;28;20036;-71
2023/06/15 05:53:24;;;;;;;7.03;4.20;;;15.80;68.80;;;;;;5067100;28;20051;-71
2023/06/15 05:55:52;;;;;;;5.60;4.10;;;15.90;68.90;;;;;;5068854;28;20384;-65
2023/06/15 05:58:19;;;;;;;5.60;3.38;;;15.90;69.30;;;;;;5065576;28;20041;-66
2023/06/15 06:00:46;;;;;;;5.18;3.42;;;15.90;69.20;;;;;;5068748;28;20074;-68
2023/06/15 06:03:14;;;;;;;5.72;3.60;;;16.10;69.20;;;;;;5065374;28;20040;-69
2023/06/15 06:05:45;;;;;;;6.78;3.72;;;16.10;69.00;;;;;;5067142;28;20040;-72
2023/06/15 06:08:12;;;;;;;5.78;3.72;;;16.10;69.10;;;;;;5068586;28;20059;-72
2023/06/15 06:10:41;;;;;;;6.03;3.60;;;16.10;69.10;;;;;;5067394;28;20056;-68
2023/06/15 06:13:38;;;;;;;7.68;3.67;;;16.20;69.10;;;;;;5058667;28;20215;-68
2023/06/15 06:16:06;;;;;;;6.43;3.45;;;16.30;68.80;;;;;;5067044;28;20044;-81
2023/06/15 06:18:32;;;;;;;6.45;3.83;;;16.30;69.30;;;;;;5064826;28;20082;-81
2023/06/15 06:20:59;;;;;;;6.78;4.10;;;16.40;69.20;;;;;;5067717;28;20043;-70
2023/06/15 06:23:26;;;;;;;7.53;3.92;;;16.50;68.90;;;;;;5066877;28;20506;-70
2023/06/15 06:25:55;;;;;;;6.68;4.20;;;16.60;69.00;;;;;;5066669;28;20094;-69
2023/06/15 06:28:21;;;;;;;6.82;4.45;;;16.70;68.70;;;;;;5067076;28;20060;-68
2023/06/15 06:30:50;;;;;;;7.57;4.40;;;16.80;68.20;;;;;;5066093;28;20045;-61
2023/06/15 06:33:17;;;;;;;8.95;4.47;;;16.90;68.10;;;;;;5059365;28;20049;-62
2023/06/15 06:35:44;;;;;;;7.05;4.80;;;17.10;67.70;;;;;;5074682;28;20052;-69
2023/06/15 06:38:11;;;;;;;8.73;5.13;;;17.20;67.20;;;;;;5068425;28;20095;-68
2023/06/15 06:40:37;;;;;;;7.82;5.32;;;17.40;66.70;;;;;;5076786;28;20048;-70
2023/06/15 06:43:04;;;;;;;8.65;5.18;;;17.50;66.30;;;;;;5071854;28;20043;-67
2023/06/15 06:45:31;;;;;;;8.23;4.97;;;17.60;65.90;;;;;;5092290;28;20051;-71
2023/06/15 06:48:00;;;;;;;7.32;4.70;;;17.80;65.50;;;;;;5104075;28;20060;-72
2023/06/15 06:50:27;;;;;;;7.80;4.38;;;18.00;65.20;;;;;;5077669;28;20044;-69
2023/06/15 06:52:53;;;;;;;7.70;4.40;;;18.10;65.10;;;;;;5075576;28;20056;-69
2023/06/15 06:55:26;;;;;;;5.68;4.20;;;18.20;64.40;;;;;;5083702;28;20399;-69
2023/06/15 06:57:53;;;;;;;6.07;4.32;;;18.40;64.20;;;;;;5075044;28;20120;-71
2023/06/15 07:00:21;;;;;;;6.05;4.10;;;18.60;63.80;;;;;;5074711;28;20140;-71
2023/06/15 07:02:48;;;;;;;6.72;4.53;;;18.70;63.40;;;;;;5070811;28;20063;-67
2023/06/15 07:05:16;;;;;;;6.43;4.13;;;18.90;63.10;;;;;;5082637;28;20036;-67
2023/06/15 07:07:43;;;;;;;7.60;4.28;;;19.10;62.60;;;;;;5076987;28;20419;-67
2023/06/15 07:10:11;;;;;;;8.63;4.07;;;19.20;62.20;;;;;;5078852;28;20036;-68
2023/06/15 07:12:38;;;;;;;6.60;3.80;;;19.40;62.30;;;;;;5082250;28;20044;-66
2023/06/15 07:15:06;;;;;;;7.05;4.15;;;19.50;62.20;;;;;;5082861;28;20043;-67
2023/06/15 07:17:33;;;;;;;7.18;3.90;;;19.70;61.80;;;;;;5082429;28;20488;-62
2023/06/15 07:20:00;;;;;;;6.07;3.70;;;19.90;61.10;;;;;;5078324;28;20056;-62
2023/06/15 07:22:29;;;;;;;4.78;3.53;;;20.00;61.00;;;;;;5090174;28;20089;-62
2023/06/15 07:24:56;;;;;;;7.38;3.75;;;20.20;60.20;;;;;;5081201;28;20426;-61
2023/06/15 07:27:22;;;;;;;6.70;3.83;;;20.30;60.30;;;;;;5063667;28;20051;-62
2023/06/15 07:29:49;;;;;;;6.40;3.80;;;20.40;59.90;;;;;;5070556;28;20785;-62
2023/06/15 07:32:16;;;;;;;6.40;3.78;;;20.60;60.00;;;;;;5072445;28;20055;-75
2023/06/15 07:34:43;;;;;;;7.47;3.75;;;20.90;59.30;;;;;;5070876;28;20048;-75
2023/06/15 07:37:10;;;;;;;5.90;3.55;;;21.00;58.10;;;;;;5069749;28;20074;-62
2023/06/15 07:39:38;;;;;;;5.22;3.33;;;21.10;57.60;;;;;;5070371;28;20539;-62
2023/06/15 07:42:06;;;;;;;4.57;3.00;;;21.30;57.30;;;;;;5072119;28;20043;-78
2023/06/15 07:44:35;;;;;;;5.22;3.58;;;21.50;56.40;;;;;;5070567;28;20114;-79
2023/06/15 07:47:02;;;;;;;4.78;3.25;;;21.60;55.90;;;;;;5070127;28;20052;-71
2023/06/15 07:49:29;;;;;;;5.03;3.22;;;21.70;55.40;;;;;;5071164;28;20055;-71
2023/06/15 07:51:56;;;;;;;4.50;2.72;;;21.80;54.60;;;;;;5071532;28;20067;-63
2023/06/15 07:54:23;;;;;;;4.70;2.97;;;22.00;53.90;;;;;;5071070;28;20044;-63
2023/06/15 07:56:51;;;;;;;6.07;2.97;;;22.10;53.50;;;;;;5068299;28;20052;-63
2023/06/15 07:59:18;;;;;;;4.25;2.83;;;22.20;52.70;;;;;;5067725;28;20048;-62
2023/06/15 08:01:45;;;;;;;4.13;2.80;;;22.40;52.70;;;;;;5069916;28;20499;-68
2023/06/15 08:04:14;;;;;;;4.38;2.60;;;22.50;52.30;;;;;;5071716;28;20041;-69
2023/06/15 08:06:41;;;;;;;3.97;2.85;;;22.70;51.30;;;;;;5070518;28;20051;-70
2023/06/15 08:09:08;;;;;;;4.63;2.60;;;22.90;50.60;;;;;;5069525;28;20057;-70
2023/06/15 08:11:35;;;;;;;4.88;2.92;;;23.00;50.60;;;;;;5068782;28;20052;-68
2023/06/15 08:14:03;;;;;;;4.05;2.60;;;23.10;50.40;;;;;;5071404;28;20086;-68
2023/06/15 08:16:30;;;;;;;5.22;2.78;;;23.20;49.80;;;;;;5070119;28;20055;-69
2023/06/15 08:18:57;;;;;;;5.20;2.60;;;23.30;49.90;;;;;;5069504;28;20044;-67
2023/06/15 08:21:24;;;;;;;5.03;2.92;;;23.40;49.90;;;;;;5068732;28;20121;-67
2023/06/15 08:23:51;;;;;;;3.90;2.80;;;23.50;49.30;;;;;;5070652;28;20072;-67
2023/06/15 08:26:18;;;;;;;5.88;2.83;;;23.70;48.80;;;;;;5069802;28;20041;-66
2023/06/15 08:28:45;;;;;;;4.93;3.15;;;23.80;48.80;;;;;;5068807;28;20044;-68
2023/06/15 08:31:13;;;;;;;4.10;2.60;;;23.90;49.00;;;;;;5070315;28;20055;-67
2023/06/15 08:33:40;;;;;;;4.20;2.40;;;24.00;48.60;;;;;;5069922;28;20052;-67
2023/06/15 08:36:07;;;;;;;3.70;2.35;;;24.10;47.90;;;;;;5070711;28;20047;-75
2023/06/15 08:38:34;;;;;;;3.80;2.50;;;24.10;47.40;;;;;;5070709;28;20041;-76
2023/06/15 08:41:02;;;;;;;5.75;2.90;;;24.20;47.10;;;;;;5070556;28;20070;-76
2023/06/15 08:43:31;;;;;;;6.70;2.90;;;24.40;46.30;;;;;;5069502;28;20060;-76
2023/06/15 08:46:00;;;;;;;4.15;2.85;;;24.40;45.90;;;;;;5069149;28;20040;-62
2023/06/15 08:48:31;;;;;;;6.32;3.72;;;24.50;46.20;;;;;;5070710;28;20044;-62
2023/06/15 08:50:58;;;;;;;5.32;3.35;;;24.60;45.50;;;;;;5068632;28;20052;-61
2023/06/15 08:53:28;;;;;;;9.20;3.97;;;24.80;44.60;;;;;;5070119;28;20508;-61
2023/06/15 08:55:55;;;;;;;7.18;4.22;;;24.90;43.30;;;;;;5090258;28;20047;-68
2023/06/15 08:58:22;;;;;;;7.78;5.00;;;25.00;43.20;;;;;;5090613;28;20479;-68
2023/06/15 09:00:49;;;;;;;6.03;4.07;;;25.00;43.50;;;;;;5078053;28;20510;-67
2023/06/15 09:03:18;;;;;;;7.25;4.25;;;25.10;43.70;;;;;;5081401;28;20113;-67
2023/06/15 09:05:46;;;;;;;;;;;25.20;44.20;;;;;;5070845;28;20052;-67
2023/06/15 09:08:14;;;;;;;8.68;4.75;;;25.30;43.90;;;;;;5076486;28;19920;-67
2023/06/15 09:10:41;;;;;;;7.35;4.90;;;25.40;43.10;;;;;;5076092;28;20893;-67
2023/06/15 09:13:15;;;;;;;8.48;5.63;;;25.50;43.00;;;;;;5090560;28;20083;-68
2023/06/15 09:15:50;;;;;;;7.93;5.35;;;25.60;42.70;;;;;;5088461;28;20749;-67
2023/06/15 09:18:17;;;;;;;7.75;5.60;;;25.70;42.70;;;;;;5076221;28;20048;-69
2023/06/15 09:20:44;;;;;;;7.22;4.68;;;25.90;40.50;;;;;;5071588;28;20044;-67
2023/06/15 09:23:13;;;;;;;6.43;4.10;;;26.00;39.70;;;;;;5082477;28;20681;-68
2023/06/15 09:25:48;;;;;;;8.65;4.30;;;26.00;38.50;;;;;;5083793;28;20056;-67
2023/06/15 09:28:15;;;;;;;5.80;3.55;;;26.00;38.50;;;;;;5069978;28;20518;-67
2023/06/15 09:30:42;;;;;;;8.75;4.50;;;26.10;37.90;;;;;;5088595;28;20052;-67
2023/06/15 09:33:16;;;;;;;8.65;4.88;;;26.20;38.80;;;;;;5055629;28;20047;-67
2023/06/15 09:36:00;;;;;;;7.20;4.13;;;26.20;38.80;;;;;;5066073;28;20033;-68
2023/06/15 09:38:30;;;;;;;6.80;4.25;;;26.30;38.50;;;;;;5069425;28;20445;-67
2023/06/15 09:41:02;;;;;;;8.07;4.07;;;26.30;38.10;;;;;;5088792;28;20060;-67
2023/06/15 09:43:33;;;;;;;5.35;3.95;;;26.40;38.10;;;;;;5083829;28;20059;-68
2023/06/15 09:46:01;;;;;;;6.47;4.07;;;26.50;37.90;;;;;;5084089;28;20056;-68
2023/06/15 09:48:30;;;;;;;6.07;4.03;;;26.50;37.60;;;;;;5066715;28;20052;-69
2023/06/15 09:51:02;;;;;;;4.75;3.33;;;26.50;38.00;;;;;;5068869;28;20052;-68
2023/06/15 09:53:31;;;;;;;5.70;3.40;;;26.60;38.20;;;;;;5085344;28;20044;-68
2023/06/15 09:55:59;;;;;;;5.65;3.92;;;26.80;38.40;;;;;;5071353;28;20423;-68
2023/06/15 09:58:26;;;;;;;6.22;4.00;;;26.80;38.10;;;;;;5076298;28;20044;-66
2023/06/15 10:00:57;;;;;;;6.00;3.95;;;26.90;37.70;;;;;;5084100;28;20051;-68
2023/06/15 10:03:25;;;;;;;5.85;4.00;;;27.10;37.20;;;;;;5084418;28;20044;-68
2023/06/15 10:05:56;;;;;;;6.75;4.10;;;27.10;37.90;;;;;;5075712;28;20044;-68
2023/06/15 10:08:26;;;;;;;7.53;4.88;;;27.10;37.20;;;;;;5083490;28;20819;-69
2023/06/15 10:10:56;;;;;;;12.95;8.15;;;27.20;37.00;;;;;;5066311;28;20044;-69
2023/06/15 10:13:26;;;;;;;14.63;10.20;;;27.30;37.50;;;;;;5068217;28;20064;-68
2023/06/15 10:15:57;;;;;;;11.05;8.68;;;27.40;37.00;;;;;;5087681;28;20058;-69
2023/06/15 10:18:26;;;;;;;12.82;9.93;;;27.40;36.90;;;;;;5083408;28;20052;-68
2023/06/15 10:20:54;;;;;;;12.35;10.02;;;27.50;37.40;;;;;;5068123;28;20063;-68
2023/06/15 10:23:26;;;;;;;10.68;7.40;;;27.60;37.10;;;;;;5083426;28;20439;-68
2023/06/15 10:25:57;;;;;;;7.57;5.22;;;27.70;37.00;;;;;;5075762;28;20059;-69
2023/06/15 10:28:25;;;;;;;8.38;5.35;;;27.70;36.50;;;;;;5058240;28;20048;-69
2023/06/15 10:30:59;;;;;;;8.80;6.45;;;27.80;36.30;;;;;;5087648;28;20040;-68
2023/06/15 10:33:34;;;;;;;8.02;5.80;;;27.90;36.30;;;;;;5073456;28;20079;-68
2023/06/15 10:36:06;;;;;;;7.30;5.85;;;27.90;36.30;;;;;;5068517;28;20040;-68
2023/06/15 10:38:40;;;;;;;8.15;5.05;;;27.80;36.30;;;;;;5079801;28;20048;-67
2023/06/15 10:41:09;;;;;;;6.50;4.72;;;27.90;35.70;;;;;;5072233;28;20075;-73
2023/06/15 10:43:39;;;;;;;;;;;28.00;35.40;;;;;;5071980;28;20049;-72
2023/06/15 10:46:10;;;;;;;8.82;5.88;;;28.10;35.00;;;;;;5088093;28;19924;-62
2023/06/15 10:48:39;;;;;;;10.48;6.65;;;28.20;35.20;;;;;;5087871;28;20559;-61
2023/06/15 10:51:08;;;;;;;9.25;6.80;;;28.30;36.10;;;;;;5079172;28;20121;-62
2023/06/15 10:53:40;;;;;;;8.00;6.30;;;28.40;34.70;;;;;;5071566;28;20141;-62
2023/06/15 10:56:15;;;;;;;8.85;6.80;;;28.40;34.60;;;;;;5067394;28;20057;-61
2023/06/15 10:58:56;;;;;;;8.40;5.25;;;28.50;34.80;;;;;;5065296;28;20534;-61
2023/06/15 11:01:24;;;;;;;6.50;5.05;;;28.60;34.50;;;;;;5067095;28;20048;-62
2023/06/15 11:03:53;;;;;;;6.90;5.75;;;28.60;34.60;;;;;;5066498;28;20048;-62
2023/06/15 11:06:23;;;;;;;9.30;6.82;;;28.30;35.40;;;;;;5067940;28;20058;-63
2023/06/15 11:08:52;;;;;;;9.30;7.28;;;28.10;35.40;;;;;;5067182;28;20465;-63
2023/06/15 11:11:22;;;;;;;9.45;6.78;;;27.80;35.70;;;;;;5067423;28;20054;-73
2023/06/15 11:13:57;;;;;;;12.27;8.30;;;27.50;35.80;;;;;;5066265;28;20545;-75
2023/06/15 11:16:29;;;;;;;19.02;15.48;;;27.20;35.90;;;;;;5067526;28;20041;-72
2023/06/15 11:18:58;;;;;;;18.83;16.05;;;27.00;36.10;;;;;;5064569;28;20055;-72
2023/06/15 11:21:28;;;;;;;11.68;9.27;;;26.80;36.20;;;;;;5068009;28;20036;-73
2023/06/15 11:23:58;;;;;;;11.52;8.85;;;26.70;35.80;;;;;;5074042;28;20458;-73
2023/06/15 11:26:31;;;;;;;9.48;7.32;;;26.60;36.10;;;;;;5061843;28;20036;-72
2023/06/15 11:29:07;;;;;;;8.95;6.50;;;26.60;36.10;;;;;;5068419;28;20052;-72
2023/06/15 11:31:38;;;;;;;8.55;6.07;;;26.60;36.20;;;;;;5083025;28;20066;-74
2023/06/15 11:34:05;;;;;;;9.98;7.20;;;26.90;36.10;;;;;;5083669;28;20131;-73
2023/06/15 11:36:32;;;;;;;8.93;7.25;;;27.20;36.00;;;;;;5066391;28;20057;-72
2023/06/15 11:38:59;;;;;;;7.60;6.20;;;27.40;36.10;;;;;;5069873;28;20044;-73
2023/06/15 11:41:27;;;;;;;10.07;8.55;;;27.60;34.80;;;;;;5075563;28;20044;-72
2023/06/15 11:43:56;;;;;;;13.13;11.02;;;27.80;35.60;;;;;;5065536;28;20044;-72
2023/06/15 11:46:24;;;;;;;12.45;8.57;;;28.00;35.60;;;;;;5069186;28;20106;-73
2023/06/15 11:48:57;;;;;;;13.65;7.72;;;28.00;35.40;;;;;;5067351;28;20048;-72
2023/06/15 11:51:25;;;;;;;11.23;7.70;;;28.10;35.50;;;;;;5067111;28;20127;-73
2023/06/15 11:53:54;;;;;;;10.30;8.30;;;28.10;35.30;;;;;;5068700;28;20051;-73
2023/06/15 11:56:21;;;;;;;10.73;8.20;;;28.20;34.80;;;;;;5068578;28;20052;-75
2023/06/15 11:58:54;;;;;;;10.80;8.40;;;28.30;34.90;;;;;;5082960;28;20075;-74
2023/06/15 12:01:21;;;;;;;11.20;7.35;;;28.40;35.10;;;;;;5079924;28;20120;-67
2023/06/15 12:03:50;;;;;;;7.68;6.18;;;28.40;34.10;;;;;;5069114;28;20450;-66
2023/06/15 12:06:18;;;;;;;7.82;5.60;;;28.30;34.10;;;;;;5070651;28;20060;-66
2023/06/15 12:08:48;;;;;;;9.23;5.75;;;28.40;34.60;;;;;;5066853;28;22795;-66
2023/06/15 12:11:15;;;;;;;8.27;5.72;;;28.40;34.30;;;;;;5069309;28;20064;-65
2023/06/15 12:13:43;;;;;;;9.48;6.40;;;28.50;33.60;;;;;;5068621;28;20052;-66
2023/06/15 12:16:12;;;;;;;9.05;5.70;;;28.50;33.40;;;;;;5070860;28;20392;-66
2023/06/15 12:18:42;;;;;;;6.47;4.22;;;28.50;33.70;;;;;;5070134;28;20430;-67
2023/06/15 12:21:09;;;;;;;6.80;3.70;;;28.50;32.60;;;;;;5068813;28;20053;-66
2023/06/15 12:23:36;;;;;;;6.05;3.65;;;28.30;32.30;;;;;;5069748;28;20059;-66
2023/06/15 12:26:04;;;;;;;5.68;3.70;;;28.00;33.00;;;;;;5068158;28;20070;-67
2023/06/15 12:28:32;;;;;;;4.88;3.03;;;27.80;33.10;;;;;;5068872;28;20071;-67
2023/06/15 12:31:03;;;;;;;6.20;3.72;;;28.00;33.30;;;;;;5070061;28;20048;-66
2023/06/15 12:33:34;;;;;;;5.47;3.50;;;28.00;33.40;;;;;;5069633;28;20044;-67
2023/06/15 12:36:02;;;;;;;5.60;3.20;;;28.10;33.70;;;;;;5069864;28;20056;-66
2023/06/15 12:38:33;;;;;;;6.55;3.70;;;28.20;33.30;;;;;;5065524;28;20411;-66
2023/06/15 12:41:00;;;;;;;5.80;3.60;;;28.30;32.20;;;;;;5069083;28;20047;-66
2023/06/15 12:43:27;;;;;;;4.80;3.40;;;28.30;32.40;;;;;;5067536;28;20059;-66
2023/06/15 12:45:55;;;;;;;5.47;3.55;;;28.30;32.80;;;;;;5069859;28;20040;-61
2023/06/15 12:48:23;;;;;;;5.70;3.50;;;28.40;32.60;;;;;;5066951;28;20044;-62
2023/06/15 12:50:51;;;;;;;4.63;3.22;;;28.40;33.20;;;;;;5067596;28;20051;-62
2023/06/15 12:53:19;;;;;;;7.13;3.88;;;28.30;33.80;;;;;;5068498;28;20052;-62